Time;durP1;ratioP1;P1;durP2;ratioP2;P2;SDS_P1;SDS_P2;PMS_P1;PMS_P2;Temp;Humidity;BMP_temperature;BMP_pressure;BME280_temperature;BME280_humidity;BME280_pressure;Samples;Min_cycle;Max_cycle;Signal;HPM_P1;HPM_P2
2022/05/07 00:00:25;;;;;;;;;;;;;;;8.56;59.43;101686.78;6147687;23;19912;-93
2022/05/07 00:03:08;;;;;;;;;;;;;;;8.46;62.02;101692.03;6147168;23;19923;-92
2022/05/07 00:05:46;;;;;;;;;;;;;;;8.48;62.13;101686.56;6147926;23;19954;-92
2022/05/07 00:08:23;;;;;;;;;;;;;;;8.53;63.13;101687.91;6146653;23;20011;-92
2022/05/07 00:10:52;;;;;;;;;;;;;;;8.50;62.79;101689.97;6099185;23;19954;-92
2022/05/07 00:13:28;;;;;;;;;;;;;;;8.43;63.37;101687.78;6125366;23;19917;-94
2022/05/07 00:18:58;;;;;;;;;;;;;;;8.46;63.75;101694.72;6133415;23;19942;-93
2022/05/07 00:21:39;;;;;;;;;;;;;;;8.43;64.99;101687.78;6160702;23;19912;-93
2022/05/07 00:24:14;;;;;;;;;;;;;;;8.38;64.99;101687.28;6211182;23;19912;-93
2022/05/07 00:26:48;;;;;;;;;;;;;;;8.24;65.54;101688.34;6209695;23;19991;-91
2022/05/07 00:29:37;;;;;;;;;;;;;;;8.25;65.31;101690.06;6210875;23;19924;-93
2022/05/07 00:32:22;;;;;;;;;;;;;;;;;;;;;
2022/05/07 00:34:56;;;;;;;;;;;;;;;8.27;65.44;101694.44;6228825;22;19957;-92
2022/05/07 00:37:29;;;;;;;;;;;;;;;8.29;65.24;101695.16;6209217;23;19923;-92
2022/05/07 00:39:55;;;;;;;;;;;;;;;8.22;65.66;101686.78;6183177;22;19995;-93
2022/05/07 00:42:54;;;;;;;;;;;;;;;;;;;;;
2022/05/07 00:45:44;;;;;;;;;;;;;;;8.24;65.07;101691.03;6210890;23;19991;-93
2022/05/07 00:48:45;;;;;;;;;;;;;;;8.14;65.52;101683.84;6222927;22;19935;-93
2022/05/07 00:51:33;;;;;;;;;;;;;;;8.10;65.01;101680.56;6119639;22;19939;-93
2022/05/07 00:54:07;;;;;;;;;;;;;;;8.11;64.99;101676.88;6184494;23;20385;-92
2022/05/07 00:56:56;;;;;;;;;;;;;;;;;;;;;
2022/05/07 01:02:33;;;;;;;;;;;;;;;7.89;66.36;101676.84;6210555;23;20299;-93
2022/05/07 01:05:06;;;;;;;;;;;;;;;7.95;65.88;101679.91;6159612;23;19944;-92
2022/05/07 01:07:35;;;;;;;;;;;;;;;7.83;66.57;101672.81;6181503;23;19916;-92
2022/05/07 01:10:01;;;;;;;;;;;;;;;7.93;66.45;101668.44;6169837;23;19900;-93
2022/05/07 01:12:43;;;;;;;;;;;;;;;;;;;;;
2022/05/07 01:15:26;;;;;;;;;;;;;;;7.93;65.73;101667.59;6194816;23;19916;-93
2022/05/07 01:21:09;;;;;;;;;;;;;;;7.89;65.73;101663.47;6213463;23;19969;-93
2022/05/07 01:23:47;;;;;;;;;;;;;;;7.80;65.84;101665.88;6183812;23;19934;-92
2022/05/07 01:26:20;;;;;;;;;;;;;;;7.78;66.04;101662.47;6211300;23;20002;-91
2022/05/07 01:29:03;;;;;;;;;;;;;;;;;;;;;
2022/05/07 01:31:34;;;;;;;;;;;;;;;7.80;65.64;101668.56;6187139;23;20368;-93
2022/05/07 01:34:21;;;;;;;;;;;;;;;7.83;65.10;101671.00;6159137;23;19955;-92
2022/05/07 01:36:59;;;;;;;;;;;;;;;7.83;64.67;101667.47;6191824;23;19911;-94
2022/05/07 01:42:56;;;;;;;;;;;;;;;7.75;64.96;101670.75;6213320;23;20413;-95
2022/05/07 01:45:33;;;;;;;;;;;;;;;7.77;64.42;101668.81;6213829;23;19964;-93
2022/05/07 01:48:16;;;;;;;;;;;;;;;7.68;64.56;101658.81;6185081;23;19920;-94
2022/05/07 01:50:48;;;;;;;;;;;;;;;7.49;64.76;101659.38;6180238;23;19958;-93
2022/05/07 01:53:43;;;;;;;;;;;;;;;7.54;64.21;101659.00;6176037;23;19917;-92
2022/05/07 01:56:20;;;;;;;;;;;;;;;7.43;65.72;101661.66;6185552;23;19921;-92
2022/05/07 01:58:48;;;;;;;;;;;;;;;7.33;65.46;101667.69;6182422;23;19963;-93
2022/05/07 02:01:24;;;;;;;;;;;;;;;7.37;64.55;101661.16;6180444;23;19927;-91
2022/05/07 02:03:53;;;;;;;;;;;;;;;7.38;65.20;101657.50;6177087;23;19947;-92
2022/05/07 02:06:23;;;;;;;;;;;;;;;7.34;64.63;101658.69;6153502;23;19912;-91
2022/05/07 02:09:03;;;;;;;;;;;;;;;7.12;65.12;101662.13;6148498;23;19913;-92
2022/05/07 02:11:54;;;;;;;;;;;;;;;7.28;64.61;101666.31;6178811;23;19916;-92
2022/05/07 02:14:42;;;;;;;;;;;;;;;;;;;;;
2022/05/07 02:17:38;;;;;;;;;;;;;;;7.30;64.05;101670.56;6142089;23;20348;-91
2022/05/07 02:20:09;;;;;;;;;;;;;;;7.23;64.23;101669.31;6149299;23;19912;-93
2022/05/07 02:22:36;;;;;;;;;;;;;;;7.22;64.42;101666.78;6145648;23;19912;-93
2022/05/07 02:25:10;;;;;;;;;;;;;;;7.10;64.85;101668.56;6147217;23;19992;-92
2022/05/07 02:27:57;;;;;;;;;;;;;;;7.18;65.21;101671.50;6154817;22;19991;-93
2022/05/07 02:30:29;;;;;;;;;;;;;;;7.12;65.10;101663.94;6128431;23;19917;-93
2022/05/07 02:32:58;;;;;;;;;;;;;;;7.19;65.12;101671.41;6153243;22;20312;-93
2022/05/07 02:35:48;;;;;;;;;;;;;;;;;;;;;
2022/05/07 02:44:18;;;;;;;;;;;;;;;7.14;64.64;101667.34;6092534;23;20368;-93
2022/05/07 02:52:56;;;;;;;;;;;;;;;7.18;65.09;101666.16;6121861;23;19942;-92
2022/05/07 02:55:25;;;;;;;;;;;;;;;7.17;65.18;101667.97;6164495;23;19924;-92
2022/05/07 02:57:52;;;;;;;;;;;;;;;7.23;64.78;101669.31;6122027;22;19913;-90
2022/05/07 03:00:22;;;;;;;;;;;;;;;7.24;65.62;101667.53;6120941;23;20143;-92
2022/05/07 03:02:53;;;;;;;;;;;;;;;7.30;65.41;101669.72;6049172;23;19936;-93
2022/05/07 03:05:33;;;;;;;;;;;;;;;;;;;;;
2022/05/07 03:11:15;;;;;;;;;;;;;;;7.12;65.57;101661.28;6214244;23;19973;-92
2022/05/07 03:13:45;;;;;;;;;;;;;;;7.23;65.65;101669.31;6196801;22;19923;-92
2022/05/07 03:16:38;;;;;;;;;;;;;;;7.34;64.79;101664.03;6192927;22;19924;-92
2022/05/07 03:28:48;;;;;;;;;;;;;;;7.44;63.46;101658.00;6163871;23;20349;-92
2022/05/07 03:46:21;;;;;;;;;;;;;;;7.85;62.19;101653.97;6197400;22;19925;-93
2022/05/07 03:49:01;;;;;;;;;;;;;;;7.74;61.00;101652.97;6185940;23;19916;-91
2022/05/07 03:53:29;;;;;;;;;;;;;;;7.81;61.33;101651.53;6163831;23;20337;-92
2022/05/07 03:54:50;;;;;;;;;;;;;;;;;;;;;
2022/05/07 04:01:10;;;;;;;;;;;;;;;;;;;;;
2022/05/07 04:07:18;;;;;;;;;;;;;;;8.22;60.06;101652.78;6207489;23;19916;-94
2022/05/07 04:09:54;;;;;;;;;;;;;;;8.17;60.94;101655.00;6156407;22;19908;-94
2022/05/07 04:18:34;;;;;;;;;;;;;;;8.34;61.64;101660.84;6185183;23;19932;-92
2022/05/07 04:21:00;;;;;;;;;;;;;;;8.44;61.82;101670.72;6155411;23;19920;-91
2022/05/07 04:23:33;;;;;;;;;;;;;;;8.64;61.06;101671.81;6186860;23;19926;-95
2022/05/07 04:26:15;;;;;;;;;;;;;;;8.63;60.57;101670.09;6126154;23;20315;-93
2022/05/07 04:35:12;;;;;;;;;;;;;;;9.06;59.88;101669.28;6186012;23;20264;-95
2022/05/07 04:55:05;;;;;;;;;;;;;;;12.98;49.28;101679.63;6233896;23;19916;-91
2022/05/07 04:57:33;;;;;;;;;;;;;;;13.47;47.67;101673.91;6201001;23;19916;-90
2022/05/07 04:59:59;;;;;;;;;;;;;;;13.75;46.89;101674.63;6209223;23;19955;-89
2022/05/07 05:02:35;;;;;;;;;;;;;;;14.00;46.08;101688.31;6210573;23;19919;-89
2022/05/07 05:05:00;;;;;;;;;;;;;;;14.48;45.22;101676.94;6213161;23;20303;-88
2022/05/07 05:07:38;;;;;;;;;;;;;;;14.56;44.37;101682.44;6187357;23;19912;-92
2022/05/07 05:10:10;;;;;;;;;;;;;;;14.80;43.99;101675.44;6195042;23;19916;-92
2022/05/07 05:13:00;;;;;;;;;;;;;;;15.29;43.15;101678.25;6218632;23;20249;-95
2022/05/07 05:15:27;;;;;;;;;;;;;;;15.51;42.35;101679.44;6191509;23;19969;-95
2022/05/07 05:23:48;;;;;;;;;;;;;;;16.27;40.51;101673.81;6219985;22;19928;-93
2022/05/07 05:26:24;;;;;;;;;;;;;;;16.56;40.36;101673.22;6216245;23;19924;-93
2022/05/07 05:29:00;;;;;;;;;;;;;;;17.02;39.43;101676.94;6226603;23;19912;-93
2022/05/07 05:31:37;;;;;;;;;;;;;;;17.19;39.50;101666.78;6210695;23;19911;-92
2022/05/07 05:34:14;;;;;;;;;;;;;;;;;;;;;
2022/05/07 05:37:05;;;;;;;;;;;;;;;17.40;38.62;101678.91;6150512;23;19912;-95
2022/05/07 05:39:36;;;;;;;;;;;;;;;17.74;38.02;101675.72;6217020;23;19961;-94
2022/05/07 05:42:05;;;;;;;;;;;;;;;18.06;37.60;101684.63;6214881;23;19919;-93
2022/05/07 05:44:39;;;;;;;;;;;;;;;18.22;37.19;101687.19;6188670;23;19974;-92
2022/05/07 05:47:24;;;;;;;;;;;;;;;18.51;36.91;101688.22;6215844;23;19965;-94
2022/05/07 05:50:02;;;;;;;;;;;;;;;18.80;35.92;101687.41;6209688;23;19912;-94
2022/05/07 05:52:32;;;;;;;;;;;;;;;19.07;35.48;101693.16;6202463;23;19900;-93
2022/05/07 05:55:13;;;;;;;;;;;;;;;19.19;35.50;101686.16;6230317;23;19916;-93
2022/05/07 06:00:50;;;;;;;;;;;;;;;19.82;34.35;101694.56;6163897;23;19940;-91
2022/05/07 06:03:16;;;;;;;;;;;;;;;19.93;34.00;101696.75;6147577;23;19916;-91
2022/05/07 06:05:51;;;;;;;;;;;;;;;20.06;33.76;101703.34;6213346;23;19960;-93
2022/05/07 06:08:42;;;;;;;;;;;;;;;20.52;32.88;101697.38;6214519;23;19991;-95
2022/05/07 06:11:16;;;;;;;;;;;;;;;20.83;32.65;101700.47;6209480;23;19934;-92
2022/05/07 06:13:51;;;;;;;;;;;;;;;21.02;32.17;101700.75;6210750;23;19915;-92
2022/05/07 06:16:19;;;;;;;;;;;;;;;21.27;31.89;101712.81;6212238;23;19924;-90
2022/05/07 06:18:44;;;;;;;;;;;;;;;21.14;32.85;101712.81;6186633;23;19912;-84
2022/05/07 06:21:10;;;;;;;;;;;;;;;20.20;34.09;101713.31;6207955;23;19957;-87
2022/05/07 06:23:36;;;;;;;;;;;;;;;20.44;33.71;101717.50;6208641;23;20378;-85
2022/05/07 06:28:46;;;;;;;;;;;;;;;19.91;36.46;101711.66;6208946;23;19965;-88
2022/05/07 06:31:11;;;;;;;;;;;;;;;19.66;38.37;101714.75;6209248;23;19912;-87
2022/05/07 06:33:38;;;;;;;;;;;;;;;19.42;38.79;101715.13;6209034;23;20351;-85
2022/05/07 06:36:04;;;;;;;;;;;;;;;19.23;40.30;101722.91;6221599;23;19916;-85
2022/05/07 06:38:30;;;;;;;;;;;;;;;18.54;41.11;101715.06;6219941;23;19995;-86
2022/05/07 06:40:56;;;;;;;;;;;;;;;18.82;41.45;101711.69;6211608;23;19912;-84
2022/05/07 06:43:22;;;;;;;;;;;;;;;18.72;40.87;101720.13;6208724;23;19969;-87
2022/05/07 06:45:48;;;;;;;;;;;;;;;18.20;42.04;101724.63;6211573;23;20301;-85
2022/05/07 06:48:21;;;;;;;;;;;;;;;18.52;41.70;101722.59;6185133;23;19914;-86
2022/05/07 06:50:49;;;;;;;;;;;;;;;18.43;41.39;101730.00;6211307;23;19912;-85
2022/05/07 06:53:22;;;;;;;;;;;;;;;18.82;40.89;101720.72;6210666;23;19998;-87
2022/05/07 06:55:59;;;;;;;;;;;;;;;19.21;39.95;101721.41;6214134;23;19908;-85
2022/05/07 06:58:29;;;;;;;;;;;;;;;19.16;38.42;101725.56;6212276;23;19912;-86
2022/05/07 07:00:54;;;;;;;;;;;;;;;19.45;38.19;101728.38;6208961;23;19912;-86
2022/05/07 07:03:30;;;;;;;;;;;;;;;;;;;;;
2022/05/07 07:05:56;;;;;;;;;;;;;;;19.51;39.21;101723.00;6201459;23;19962;-87
2022/05/07 07:08:31;;;;;;;;;;;;;;;19.53;35.86;101726.38;6194273;23;19912;-89
2022/05/07 07:10:58;;;;;;;;;;;;;;;19.88;34.64;101723.81;6208860;23;19912;-85
2022/05/07 07:13:24;;;;;;;;;;;;;;;20.19;34.75;101719.84;6209193;23;19930;-87
2022/05/07 07:15:51;;;;;;;;;;;;;;;20.02;36.32;101713.84;6212086;23;20244;-85
2022/05/07 07:18:39;;;;;;;;;;;;;;;20.41;37.22;101726.06;6209640;23;19943;-85
2022/05/07 07:21:23;;;;;;;;;;;;;;;20.27;38.29;101716.09;6210518;23;20328;-91
2022/05/07 07:23:48;;;;;;;;;;;;;;;20.23;36.46;101712.94;6208553;23;19951;-90
2022/05/07 07:26:20;;;;;;;;;;;;;;;20.92;35.59;101719.44;6209526;23;19916;-88
2022/05/07 07:28:46;;;;;;;;;;;;;;;20.84;27.76;101721.31;6213605;23;20316;-87
2022/05/07 07:31:12;;;;;;;;;;;;;;;21.13;28.23;101716.56;6212514;23;19912;-88
2022/05/07 07:33:38;;;;;;;;;;;;;;;20.95;26.98;101719.88;6210759;23;19912;-89
2022/05/07 07:36:09;;;;;;;;;;;;;;;20.62;26.88;101720.56;6210717;23;19989;-89
2022/05/07 07:38:43;;;;;;;;;;;;;;;20.48;24.74;101723.38;6212037;23;19943;-88
2022/05/07 07:41:18;;;;;;;;;;;;;;;20.90;25.86;101722.38;6215380;23;19911;-88
2022/05/07 07:43:58;;;;;;;;;;;;;;;21.18;23.73;101721.44;6223984;23;19920;-90
2022/05/07 07:49:07;;;;;;;;;;;;;;;21.29;21.36;101731.78;6211402;23;19919;-85
2022/05/07 07:51:33;;;;;;;;;;;;;;;21.39;21.94;101736.84;6211448;23;19916;-88
2022/05/07 07:54:00;;;;;;;;;;;;;;;21.92;22.14;101745.19;6209681;23;19912;-91
2022/05/07 07:56:26;;;;;;;;;;;;;;;21.89;20.73;101740.97;6186930;23;20328;-89
2022/05/07 07:58:57;;;;;;;;;;;;;;;22.47;20.45;101742.22;6220007;23;19949;-91
2022/05/07 08:01:56;;;;;;;;;;;;;;;22.74;19.80;101749.31;6220706;23;19983;-89
2022/05/07 08:04:25;;;;;;;;;;;;;;;23.20;20.20;101750.22;6214080;23;19912;-91
2022/05/07 08:12:25;;;;;;;;;;;;;;;23.30;23.23;101745.09;6140735;23;19944;-91
2022/05/07 08:14:51;;;;;;;;;;;;;;;23.78;24.36;101760.25;6212373;23;19969;-88
2022/05/07 08:17:19;;;;;;;;;;;;;;;23.55;24.73;101752.53;6191783;23;19916;-86
2022/05/07 08:19:45;;;;;;;;;;;;;;;23.26;25.74;101751.25;6214115;23;19986;-89
2022/05/07 08:22:14;;;;;;;;;;;;;;;23.25;25.80;101747.66;6213975;23;19980;-89
2022/05/07 08:24:43;;;;;;;;;;;;;;;23.63;24.66;101754.22;6212812;23;19916;-89
2022/05/07 08:27:12;;;;;;;;;;;;;;;23.43;25.21;101743.34;6212162;23;19918;-89
2022/05/07 08:29:37;;;;;;;;;;;;;;;23.35;24.93;101748.03;6210249;23;19920;-88
2022/05/07 08:32:04;;;;;;;;;;;;;;;23.56;24.87;101749.59;6190272;23;19936;-90
2022/05/07 08:34:30;;;;;;;;;;;;;;;24.50;24.37;101744.22;6213004;23;19912;-90
2022/05/07 08:37:01;;;;;;;;;;;;;;;23.45;24.13;101741.22;6213675;23;19939;-91
2022/05/07 08:39:41;;;;;;;;;;;;;;;23.91;23.58;101746.41;6222870;23;19932;-88
2022/05/07 08:42:11;;;;;;;;;;;;;;;23.67;23.58;101750.78;6214923;23;19923;-90
2022/05/07 08:44:36;;;;;;;;;;;;;;;23.59;23.67;101754.63;6219885;23;19938;-87
2022/05/07 08:47:09;;;;;;;;;;;;;;;24.47;21.53;101750.19;6225231;23;19919;-89
2022/05/07 08:49:35;;;;;;;;;;;;;;;24.63;20.12;101759.72;6226939;23;20011;-89
2022/05/07 08:52:11;;;;;;;;;;;;;;;24.85;24.33;101751.88;6227021;22;19912;-88
2022/05/07 08:54:40;;;;;;;;;;;;;;;25.01;22.43;101758.66;6235294;23;19999;-89
2022/05/07 08:57:12;;;;;;;;;;;;;;;26.24;21.83;101750.94;6234554;23;19956;-90
2022/05/07 08:59:40;;;;;;;;;;;;;;;27.55;20.92;101747.66;6170766;22;19916;-88
2022/05/07 09:02:10;;;;;;;;;;;;;;;26.49;19.79;101756.22;6188636;23;19912;-89
2022/05/07 09:04:40;;;;;;;;;;;;;;;26.70;19.08;101755.63;6192283;22;20281;-90
2022/05/07 09:07:41;;;;;;;;;;;;;;;25.66;20.12;101756.09;6217996;23;19912;-89
2022/05/07 09:10:26;;;;;;;;;;;;;;;;;;;;;
2022/05/07 09:15:56;;;;;;;;;;;;;;;24.64;23.29;101754.00;6196363;23;19912;-89
2022/05/07 09:18:47;;;;;;;;;;;;;;;25.57;21.10;101745.66;6186379;23;19919;-89
2022/05/07 09:21:27;;;;;;;;;;;;;;;25.99;20.41;101749.25;6188064;23;19912;-89
2022/05/07 09:23:58;;;;;;;;;;;;;;;24.53;21.75;101749.25;6212746;23;19955;-89
2022/05/07 09:26:27;;;;;;;;;;;;;;;24.78;21.61;101751.94;6211581;23;19912;-90
2022/05/07 09:29:04;;;;;;;;;;;;;;;;;;;;;
2022/05/07 09:31:31;;;;;;;;;;;;;;;24.62;21.90;101758.88;6189503;23;19948;-90
2022/05/07 09:37:02;;;;;;;;;;;;;;;23.92;23.54;101758.25;6215023;23;19923;-90
2022/05/07 09:39:44;;;;;;;;;;;;;;;24.10;24.20;101752.81;6192145;23;19922;-88
2022/05/07 09:42:11;;;;;;;;;;;;;;;23.00;25.97;101755.78;6189452;23;20344;-90
2022/05/07 09:45:00;;;;;;;;;;;;;;;24.54;23.60;101748.19;6190439;23;19916;-92
2022/05/07 09:47:48;;;;;;;;;;;;;;;;;;;;;
2022/05/07 09:50:21;;;;;;;;;;;;;;;24.50;22.70;101768.94;6176439;23;19961;-90
2022/05/07 09:58:23;;;;;;;;;;;;;;;23.94;24.33;101745.97;6188755;23;19927;-89
2022/05/07 10:01:19;;;;;;;;;;;;;;;23.70;25.99;101744.03;6203600;23;19917;-88
2022/05/07 10:03:50;;;;;;;;;;;;;;;23.06;26.78;101740.34;6200661;23;19912;-88
2022/05/07 10:06:25;;;;;;;;;;;;;;;22.92;26.81;101748.63;6203290;23;19920;-88
2022/05/07 10:09:10;;;;;;;;;;;;;;;22.96;27.75;101749.84;6195540;23;19912;-88
2022/05/07 10:11:49;;;;;;;;;;;;;;;22.82;26.83;101753.72;6199979;23;19916;-89
2022/05/07 10:14:23;;;;;;;;;;;;;;;23.13;26.24;101739.28;6187716;23;20323;-89
2022/05/07 10:17:07;;;;;;;;;;;;;;;22.51;27.47;101741.56;6186716;23;19924;-87
2022/05/07 10:19:59;;;;;;;;;;;;;;;22.58;26.37;101746.19;6193196;23;19912;-89
2022/05/07 10:22:25;;;;;;;;;;;;;;;22.49;25.94;101738.19;6186406;23;19912;-91
2022/05/07 10:25:13;;;;;;;;;;;;;;;22.60;27.55;101733.97;6195082;23;19916;-88
2022/05/07 10:27:42;;;;;;;;;;;;;;;24.40;25.43;101738.38;6199955;23;19923;-90
2022/05/07 10:33:13;;;;;;;;;;;;;;;22.99;26.90;101731.31;6196130;23;19923;-92
2022/05/07 10:35:47;;;;;;;;;;;;;;;22.49;27.45;101724.50;6182825;23;19995;-91
2022/05/07 10:38:25;;;;;;;;;;;;;;;22.40;26.89;101722.19;6182950;23;19916;-91
2022/05/07 10:41:01;;;;;;;;;;;;;;;21.79;29.10;101731.47;6181685;23;19912;-91
2022/05/07 10:43:37;;;;;;;;;;;;;;;21.28;30.90;101730.94;6182102;23;19967;-90
2022/05/07 10:46:09;;;;;;;;;;;;;;;21.55;28.96;101741.97;6180363;23;20313;-90
2022/05/07 10:48:51;;;;;;;;;;;;;;;22.66;28.71;101732.25;6182630;23;19917;-90
2022/05/07 10:51:37;;;;;;;;;;;;;;;23.11;28.00;101735.91;6182316;23;20309;-89
2022/05/07 10:54:26;;;;;;;;;;;;;;;22.87;28.54;101728.38;6184310;23;19928;-95
2022/05/07 10:56:52;;;;;;;;;;;;;;;23.44;26.57;101734.06;6158800;23;19912;-95
2022/05/07 10:59:18;;;;;;;;;;;;;;;23.50;26.77;101727.66;6302510;22;19900;-93
2022/05/07 11:02:18;;;;;;;;;;;;;;;23.10;27.26;101716.94;6284237;22;20011;-93
2022/05/07 11:04:54;;;;;;;;;;;;;;;21.13;28.75;101716.56;6297007;22;19932;-94
2022/05/07 11:07:38;;;;;;;;;;;;;;;21.41;30.75;101723.84;6299301;22;19917;-92
2022/05/07 11:10:09;;;;;;;;;;;;;;;21.11;30.49;101713.19;6263229;22;19919;-92
2022/05/07 11:12:40;;;;;;;;;;;;;;;20.27;32.00;101716.09;6284394;22;20040;-92
2022/05/07 11:15:13;;;;;;;;;;;;;;;20.01;32.33;101712.13;6194892;23;19909;-92
2022/05/07 11:17:40;;;;;;;;;;;;;;;19.66;33.38;101713.91;6267523;22;19919;-92
2022/05/07 11:20:06;;;;;;;;;;;;;;;18.79;35.16;101709.38;6262522;22;19952;-92
2022/05/07 11:22:41;;;;;;;;;;;;;;;18.93;35.45;101709.34;6295882;22;19916;-93
2022/05/07 11:25:31;;;;;;;;;;;;;;;18.96;36.51;101717.16;6191030;22;19912;-92
2022/05/07 11:28:05;;;;;;;;;;;;;;;19.03;36.88;101719.94;6261142;22;19952;-91
2022/05/07 11:30:45;;;;;;;;;;;;;;;;;;;;;
2022/05/07 11:33:20;;;;;;;;;;;;;;;19.21;35.76;101715.97;6282616;22;19943;-91
2022/05/07 11:35:58;;;;;;;;;;;;;;;;;;;;;
2022/05/07 11:38:43;;;;;;;;;;;;;;;19.06;36.80;101718.69;6277321;22;19920;-92
2022/05/07 11:41:12;;;;;;;;;;;;;;;19.44;35.08;101722.09;6188922;23;19919;-91
2022/05/07 11:49:41;;;;;;;;;;;;;;;18.83;36.18;101719.69;6205098;23;19916;-93
2022/05/07 11:52:14;;;;;;;;;;;;;;;19.01;35.46;101705.69;6263655;22;19900;-93
2022/05/07 11:55:05;;;;;;;;;;;;;;;;;;;;;
2022/05/07 11:57:36;;;;;;;;;;;;;;;19.94;33.30;101706.63;6185963;23;19955;-92
2022/05/07 12:00:26;;;;;;;;;;;;;;;19.50;33.51;101704.97;6182394;23;20312;-91
2022/05/07 12:03:11;;;;;;;;;;;;;;;18.50;35.04;101709.16;6158608;23;19920;-93
2022/05/07 12:06:00;;;;;;;;;;;;;;;18.82;35.03;101700.81;6183263;23;19954;-92
2022/05/07 12:08:51;;;;;;;;;;;;;;;18.46;35.40;101696.13;6193931;23;19912;-92
2022/05/07 12:11:21;;;;;;;;;;;;;;;18.53;35.43;101695.16;6186172;23;19913;-92
2022/05/07 12:13:49;;;;;;;;;;;;;;;18.08;36.46;101705.19;6186787;23;19912;-90
2022/05/07 12:19:02;;;;;;;;;;;;;;;17.79;38.05;101705.91;6186299;23;19931;-93
2022/05/07 12:29:59;;;;;;;;;;;;;;;17.97;38.00;101707.50;6193746;23;19919;-92
2022/05/07 12:32:29;;;;;;;;;;;;;;;18.33;37.42;101703.06;6180809;22;19935;-92
2022/05/07 12:34:58;;;;;;;;;;;;;;;18.23;36.79;101707.91;6182875;22;19951;-90
2022/05/07 12:37:24;;;;;;;;;;;;;;;18.26;36.01;101704.84;6207273;22;19979;-92
2022/05/07 12:40:00;;;;;;;;;;;;;;;17.65;37.15;101706.72;6205765;22;19905;-92
2022/05/07 12:42:37;;;;;;;;;;;;;;;;;;;;;
2022/05/07 12:45:29;;;;;;;;;;;;;;;18.28;37.00;101696.47;6207419;22;19904;-93
2022/05/07 12:48:01;;;;;;;;;;;;;;;17.86;37.57;101700.63;6172092;22;19905;-91
2022/05/07 12:50:26;;;;;;;;;;;;;;;17.72;37.72;101700.38;6206741;22;19904;-92
2022/05/07 12:52:55;;;;;;;;;;;;;;;17.72;39.11;101699.50;6203877;22;19924;-92
2022/05/07 12:55:24;;;;;;;;;;;;;;;17.34;37.45;101710.34;6185335;22;19946;-91
2022/05/07 12:57:52;;;;;;;;;;;;;;;17.16;39.00;101709.78;6158246;22;19924;-93
2022/05/07 13:00:22;;;;;;;;;;;;;;;17.42;39.52;101709.44;6181739;22;19911;-92
2022/05/07 13:03:02;;;;;;;;;;;;;;;;;;;;;
2022/05/07 13:05:33;;;;;;;;;;;;;;;17.09;40.39;101705.06;6184144;22;19904;-92
2022/05/07 13:08:00;;;;;;;;;;;;;;;16.77;41.20;101699.78;6157386;22;19940;-92
2022/05/07 13:10:27;;;;;;;;;;;;;;;16.83;41.61;101696.38;6182796;22;19911;-93
2022/05/07 13:12:59;;;;;;;;;;;;;;;17.35;40.50;101686.72;6182792;22;19911;-93
2022/05/07 13:15:26;;;;;;;;;;;;;;;16.89;42.20;101676.66;6183576;22;19974;-92
2022/05/07 13:17:51;;;;;;;;;;;;;;;17.04;42.37;101680.31;6169306;23;19908;-91
2022/05/07 13:20:17;;;;;;;;;;;;;;;17.62;41.01;101677.19;6168066;23;19967;-92
2022/05/07 13:22:44;;;;;;;;;;;;;;;17.68;39.57;101687.34;6167059;23;19931;-92
2022/05/07 13:25:18;;;;;;;;;;;;;;;17.36;39.52;101683.00;6168308;22;19921;-92
2022/05/07 13:28:16;;;;;;;;;;;;;;;17.68;40.09;101673.75;6165107;23;19916;-92
2022/05/07 13:30:49;;;;;;;;;;;;;;;17.59;40.26;101677.56;6161131;23;19922;-91
2022/05/07 13:33:15;;;;;;;;;;;;;;;17.47;40.22;101672.53;6167519;23;19913;-92
2022/05/07 13:35:47;;;;;;;;;;;;;;;16.73;42.48;101679.41;6140992;23;19965;-92
2022/05/07 13:38:13;;;;;;;;;;;;;;;16.93;42.74;101672.56;6170871;23;19923;-92
2022/05/07 13:41:11;;;;;;;;;;;;;;;16.83;41.58;101669.19;6168430;23;19916;-91
2022/05/07 13:43:44;;;;;;;;;;;;;;;16.70;42.66;101664.31;6168208;23;20297;-92
2022/05/07 13:46:14;;;;;;;;;;;;;;;17.00;41.67;101668.09;6146673;23;20348;-91
2022/05/07 13:49:16;;;;;;;;;;;;;;;;;;;;;
2022/05/07 13:51:44;;;;;;;;;;;;;;;17.12;42.02;101654.13;6195418;23;19923;-92
2022/05/07 13:54:20;;;;;;;;;;;;;;;17.19;41.80;101652.38;6189586;23;19923;-92
2022/05/07 13:56:58;;;;;;;;;;;;;;;;;;;;;
2022/05/07 13:59:40;;;;;;;;;;;;;;;17.21;41.30;101653.03;6196672;23;19924;-93
2022/05/07 14:02:12;;;;;;;;;;;;;;;17.19;42.03;101653.22;6179564;23;19912;-92
2022/05/07 14:04:38;;;;;;;;;;;;;;;16.97;42.84;101654.88;6205867;23;19915;-90
2022/05/07 14:07:04;;;;;;;;;;;;;;;16.70;43.93;101652.63;6208118;23;19909;-93
2022/05/07 14:09:33;;;;;;;;;;;;;;;16.57;44.69;101640.44;6182085;23;19952;-91
2022/05/07 14:12:19;;;;;;;;;;;;;;;16.79;44.59;101647.00;6206938;23;19912;-92
2022/05/07 14:15:10;;;;;;;;;;;;;;;16.60;45.30;101645.53;6202617;23;19916;-92
2022/05/07 14:17:38;;;;;;;;;;;;;;;16.31;45.81;101645.31;6168989;23;19939;-91
2022/05/07 14:20:07;;;;;;;;;;;;;;;16.13;47.09;101645.53;6188888;22;19912;-88
2022/05/07 14:22:41;;;;;;;;;;;;;;;15.96;46.90;101650.16;6184854;23;19935;-87
2022/05/07 14:25:22;;;;;;;;;;;;;;;15.98;48.30;101646.25;6197530;23;19912;-88
2022/05/07 14:27:47;;;;;;;;;;;;;;;15.82;48.47;101641.69;6192757;23;19904;-84
2022/05/07 14:30:13;;;;;;;;;;;;;;;15.72;48.38;101645.59;6188904;23;19963;-84
2022/05/07 14:32:57;;;;;;;;;;;;;;;15.78;47.99;101639.47;6212105;23;19928;-85
2022/05/07 14:35:30;;;;;;;;;;;;;;;15.77;48.08;101644.06;6163880;22;19916;-85
2022/05/07 14:38:00;;;;;;;;;;;;;;;15.83;48.07;101637.13;6186638;23;19916;-86
2022/05/07 14:40:38;;;;;;;;;;;;;;;15.84;48.85;101636.09;6198251;23;19945;-89
2022/05/07 14:43:05;;;;;;;;;;;;;;;15.76;48.30;101644.25;6165166;23;19913;-88
2022/05/07 14:45:31;;;;;;;;;;;;;;;15.52;49.22;101639.63;6188177;23;19912;-88
2022/05/07 14:47:59;;;;;;;;;;;;;;;15.44;49.01;101643.22;6182709;23;19912;-87
2022/05/07 14:50:29;;;;;;;;;;;;;;;15.46;48.45;101652.03;6184382;23;19916;-88
2022/05/07 14:52:56;;;;;;;;;;;;;;;15.10;49.79;101629.78;6157090;23;19939;-88
2022/05/07 14:55:31;;;;;;;;;;;;;;;14.86;50.64;101644.97;6169978;23;19945;-88
2022/05/07 14:57:57;;;;;;;;;;;;;;;14.82;52.45;101643.63;6185010;23;20011;-87
2022/05/07 15:00:25;;;;;;;;;;;;;;;14.84;52.71;101649.69;6183692;23;19912;-89
2022/05/07 15:02:54;;;;;;;;;;;;;;;14.54;53.11;101641.16;6204195;23;19913;-86
2022/05/07 15:05:22;;;;;;;;;;;;;;;14.46;53.40;101643.78;6185074;23;19916;-88
2022/05/07 15:10:35;;;;;;;;;;;;;;;14.50;54.14;101639.75;6165418;23;19962;-88
2022/05/07 15:10:39;;;;;;;;;;;;;;;14.56;54.16;101646.41;6188039;23;19913;-88
2022/05/07 15:13:09;;;;;;;;;;;;;;;14.43;54.37;101632.47;6185842;23;19918;-88
2022/05/07 15:15:35;;;;;;;;;;;;;;;14.55;53.84;101634.72;6188186;23;19912;-88
2022/05/07 15:18:01;;;;;;;;;;;;;;;14.39;53.40;101631.94;6186071;23;20049;-88
2022/05/07 15:20:27;;;;;;;;;;;;;;;14.45;53.62;101644.81;6186256;23;19919;-88
2022/05/07 15:22:53;;;;;;;;;;;;;;;14.45;53.87;101636.69;6182312;23;19913;-89
2022/05/07 15:25:21;;;;;;;;;;;;;;;14.38;54.16;101626.69;6183035;23;20333;-86
2022/05/07 15:27:47;;;;;;;;;;;;;;;14.29;54.30;101632.06;6182745;23;19931;-87
2022/05/07 15:30:20;;;;;;;;;;;;;;;14.24;54.84;101625.44;6183105;23;20310;-88
2022/05/07 15:38:15;;;;;;;;;;;;;;;14.47;54.50;101631.97;6178802;23;20017;-88
2022/05/07 15:40:41;;;;;;;;;;;;;;;14.81;52.81;101624.84;6187046;23;19912;-89
2022/05/07 15:43:09;;;;;;;;;;;;;;;15.02;52.25;101624.38;6191089;23;19939;-90
2022/05/07 15:45:37;;;;;;;;;;;;;;;15.14;50.60;101623.03;6190196;23;19912;-88
2022/05/07 15:48:05;;;;;;;;;;;;;;;15.25;50.85;101620.00;6185977;23;19944;-86
2022/05/07 15:51:00;;;;;;;;;;;;;;;14.82;52.76;101619.28;6179819;23;19916;-90
2022/05/07 15:53:34;;;;;;;;;;;;;;;14.71;53.66;101615.00;6179737;23;19927;-88
2022/05/07 15:56:05;;;;;;;;;;;;;;;14.59;53.11;101616.31;6180838;23;19922;-89
2022/05/07 15:58:31;;;;;;;;;;;;;;;14.59;53.00;101613.63;6180100;23;19981;-91
2022/05/07 16:01:32;;;;;;;;;;;;;;;14.67;52.91;101615.50;6178556;23;20313;-89
2022/05/07 16:03:58;;;;;;;;;;;;;;;14.82;53.44;101615.69;6179013;23;19916;-90
2022/05/07 16:06:27;;;;;;;;;;;;;;;14.85;52.56;101616.22;6178997;23;19924;-87
2022/05/07 16:08:53;;;;;;;;;;;;;;;14.51;53.27;101625.19;6177476;23;19984;-87